createdAt,value
2022-09-05T00:02:04.212Z,77.28
2022-09-05T00:04:52.672Z,76.55
2022-09-05T00:07:43.319Z,77.38
2022-09-05T00:10:36.131Z,78.13
2022-09-05T00:13:11.059Z,79.34
2022-09-05T00:15:43.883Z,78.73
2022-09-05T00:20:28.585Z,79.16
2022-09-05T00:24:26.252Z,78.94
2022-09-05T00:24:45.569Z,80.66
2022-09-05T00:27:19.631Z,80.94
2022-09-05T00:31:07.376Z,81.82
2022-09-05T00:33:16.301Z,82.14
2022-09-05T00:35:47.719Z,82.40
2022-09-05T00:38:28.537Z,83.35
2022-09-05T00:41:13.651Z,84.49
2022-09-05T00:43:44.807Z,82.60
2022-09-05T00:46:15.196Z,83.66
2022-09-05T00:48:59.199Z,84.45
2022-09-05T00:51:35.831Z,83.12
2022-09-05T00:54:12.083Z,83.93
2022-09-05T00:57:17.914Z,85.93
2022-09-05T01:00:13.727Z,84.94
2022-09-05T01:03:11.392Z,86.48
2022-09-05T01:05:38.566Z,86.21
2022-09-05T01:08:30.500Z,86.19
2022-09-05T01:11:09.828Z,86.00
2022-09-05T01:13:39.848Z,87.08
2022-09-05T01:16:41.866Z,87.65
2022-09-05T01:19:24.137Z,87.28
2022-09-05T01:22:09.947Z,86.51
2022-09-05T01:24:55.820Z,87.03
2022-09-05T01:28:37.041Z,88.10
2022-09-05T01:30:41.422Z,89.03
2022-09-05T01:33:22.903Z,89.65
2022-09-05T01:36:15.979Z,89.32
2022-09-05T01:39:53.573Z,87.15
2022-09-05T01:41:54.529Z,88.08
2022-09-05T01:44:30.582Z,88.10
2022-09-05T01:47:29.635Z,87.43
2022-09-05T01:50:35.500Z,87.94
2022-09-05T01:53:38.782Z,88.65
2022-09-05T01:56:17.914Z,89.65
2022-09-05T01:59:06.284Z,89.20
2022-09-05T02:02:00.350Z,89.81
2022-09-05T02:05:02.938Z,88.68
2022-09-05T02:07:48.332Z,89.21
2022-09-05T02:10:30.860Z,90.97
2022-09-05T02:13:33.371Z,90.38
2022-09-05T02:16:12.474Z,91.40
2022-09-05T02:18:58.903Z,92.65
2022-09-05T02:21:39.218Z,94.36
2022-09-05T02:24:32.383Z,93.19
2022-09-05T02:27:31.637Z,92.37
2022-09-05T02:30:19.899Z,90.86
2022-09-05T02:32:51.238Z,90.23
2022-09-05T02:35:38.531Z,91.09
2022-09-05T02:42:41.833Z,92.73
2022-09-05T02:45:10.843Z,91.52
2022-09-05T02:45:21.362Z,97.58
2022-09-05T02:47:56.606Z,96.57
2022-09-05T02:54:24.070Z,97.87
2022-09-05T02:57:41.139Z,95.15
2022-09-05T02:57:46.576Z,94.85
2022-09-05T02:59:53.245Z,94.25
2022-09-05T03:02:27.024Z,94.95
2022-09-05T03:05:06.958Z,95.69
2022-09-05T03:07:52.378Z,99.06
2022-09-05T03:11:02.100Z,96.46
2022-09-05T03:14:00.098Z,96.06
2022-09-05T03:16:50.969Z,96.40
2022-09-05T03:19:52.274Z,97.66
2022-09-05T03:22:38.330Z,100.00
2022-09-05T03:25:29.787Z,100.00
2022-09-05T03:28:21.022Z,100.00
2022-09-05T03:31:22.761Z,100.00
2022-09-05T03:34:20.544Z,100.00
2022-09-05T03:37:09.121Z,100.00
2022-09-05T03:39:57.658Z,100.00
2022-09-05T03:42:40.057Z,98.52
2022-09-05T03:45:34.970Z,99.22
2022-09-05T03:48:28.485Z,98.59
2022-09-05T03:53:51.131Z,100.00
2022-09-05T03:57:07.415Z,98.40
2022-09-05T03:57:12.695Z,100.00
2022-09-05T03:59:53.889Z,100.00
2022-09-05T04:08:10.979Z,99.08
2022-09-05T04:08:18.263Z,100.00
2022-09-05T04:08:32.421Z,100.00
2022-09-05T04:11:09.601Z,100.00
2022-09-05T04:14:25.673Z,100.00
2022-09-05T04:17:31.649Z,100.00
2022-09-05T04:20:08.280Z,100.00
2022-09-05T04:23:16.867Z,100.00
2022-09-05T04:25:58.478Z,100.00
2022-09-05T04:29:09.493Z,100.00
2022-09-05T04:31:43.210Z,100.00
2022-09-05T04:34:25.273Z,100.00
2022-09-05T04:37:02.052Z,100.00
2022-09-05T04:39:30.287Z,100.00
2022-09-05T04:42:07.016Z,100.00
2022-09-05T04:44:37.274Z,100.00
2022-09-05T04:47:09.001Z,100.00
2022-09-05T04:49:46.600Z,100.00
2022-09-05T04:52:49.199Z,100.00
2022-09-05T04:55:22.385Z,100.00
2022-09-05T04:57:57.839Z,100.00
2022-09-05T05:05:59.724Z,100.00
2022-09-05T05:06:17.541Z,100.00
2022-09-05T05:06:44.507Z,100.00
2022-09-05T05:09:24.911Z,100.00
2022-09-05T05:18:01.199Z,100.00
2022-09-05T05:18:14.682Z,100.00
2022-09-05T05:18:42.318Z,100.00
2022-09-05T05:21:21.155Z,100.00
2022-09-05T05:24:07.659Z,100.00
2022-09-05T05:26:45.535Z,100.00
2022-09-05T05:29:27.232Z,100.00
2022-09-05T05:32:00.049Z,100.00
2022-09-05T05:34:35.903Z,98.97
2022-09-05T05:37:10.583Z,99.63
2022-09-05T05:39:44.481Z,99.52
2022-09-05T05:42:20.580Z,99.28
2022-09-05T05:44:55.087Z,100.00
2022-09-05T05:47:37.761Z,100.00
2022-09-05T05:50:23.462Z,99.03
2022-09-05T05:53:42.669Z,100.00
2022-09-05T05:56:35.957Z,100.00
2022-09-05T05:59:57.656Z,100.00
2022-09-05T06:02:27.451Z,100.00
2022-09-05T06:05:16.327Z,100.00
2022-09-05T06:09:00.918Z,100.00
2022-09-05T06:14:53.052Z,99.36
2022-09-05T06:15:05.148Z,99.92
2022-09-05T06:16:42.129Z,99.68
2022-09-05T06:19:31.806Z,99.27
2022-09-05T06:22:54.762Z,100.00
2022-09-05T06:25:54.445Z,100.00
2022-09-05T06:28:55.465Z,98.58
2022-09-05T06:32:00.916Z,96.77
2022-09-05T06:35:10.490Z,94.07
2022-09-05T06:38:16.026Z,94.31
2022-09-05T06:41:01.502Z,96.30
2022-09-05T06:43:37.190Z,96.09
2022-09-05T06:47:22.206Z,95.11
2022-09-05T06:49:28.889Z,96.93
2022-09-05T06:52:29.711Z,94.83
2022-09-05T06:55:27.074Z,92.88
2022-09-05T06:58:21.378Z,94.01
2022-09-05T07:00:56.973Z,89.51
2022-09-05T07:03:52.075Z,90.59
2022-09-05T07:06:49.411Z,89.48
2022-09-05T07:09:50.786Z,88.79
2022-09-05T07:12:30.279Z,88.36
2022-09-05T07:15:09.430Z,88.69
2022-09-05T07:18:10.575Z,88.40
2022-09-05T07:21:16.493Z,90.51
2022-09-05T07:24:11.161Z,89.22
2022-09-05T07:26:51.498Z,90.05
2022-09-05T07:29:36.800Z,90.31
2022-09-05T07:32:08.353Z,90.83
2022-09-05T07:34:37.708Z,93.36
2022-09-05T07:37:15.752Z,90.69
2022-09-05T07:39:53.926Z,93.33
2022-09-05T07:42:27.136Z,92.57
2022-09-05T07:45:06.381Z,92.34
2022-09-05T07:47:35.831Z,90.52
2022-09-05T07:51:56.775Z,89.53
2022-09-05T07:56:53.850Z,87.83
2022-09-05T07:57:07.805Z,86.74
2022-09-05T07:58:49.733Z,86.19
2022-09-05T08:01:19.190Z,84.29
2022-09-05T08:03:54.040Z,83.67
2022-09-05T08:07:11.942Z,80.28
2022-09-05T08:10:05.558Z,80.75
2022-09-05T08:12:15.991Z,79.56
2022-09-05T08:15:02.280Z,78.36
2022-09-05T08:17:33.743Z,76.98
2022-09-05T08:20:21.071Z,75.45
2022-09-05T08:23:11.251Z,71.97
2022-09-05T08:26:12.741Z,69.74
2022-09-05T08:28:55.325Z,65.16
2022-09-05T08:31:46.941Z,64.09
2022-09-05T08:34:44.810Z,63.10
2022-09-05T08:37:21.244Z,64.15
2022-09-05T08:39:57.531Z,61.90
2022-09-05T08:43:47.195Z,59.95
2022-09-05T08:46:42.971Z,56.64
2022-09-05T08:49:16.282Z,55.75
2022-09-05T08:52:00.446Z,54.51
2022-09-05T08:55:07.588Z,54.91
2022-09-05T08:57:59.528Z,54.58
2022-09-05T09:00:32.455Z,55.34
2022-09-05T09:03:12.983Z,54.61
2022-09-05T09:06:14.550Z,55.16
2022-09-05T09:09:15.451Z,54.27
2022-09-05T09:12:21.399Z,51.95
2022-09-05T09:14:54.542Z,50.93
2022-09-05T09:17:42.035Z,50.91
2022-09-05T09:20:33.524Z,51.17
2022-09-05T09:23:31.950Z,50.65
2022-09-05T09:26:02.647Z,50.66
2022-09-05T09:29:06.300Z,52.39
2022-09-05T09:31:38.932Z,50.00
2022-09-05T09:34:25.248Z,48.91
2022-09-05T09:37:14.941Z,49.29
2022-09-05T09:40:03.976Z,49.88
2022-09-05T09:42:50.859Z,49.60
2022-09-05T09:45:41.432Z,48.75
2022-09-05T09:48:26.740Z,49.93
2022-09-05T09:51:12.357Z,51.24
2022-09-05T09:54:00.930Z,48.75
2022-09-05T09:56:46.972Z,50.57
2022-09-05T09:59:56.918Z,49.52
2022-09-05T10:03:17.091Z,47.56
2022-09-05T10:10:34.718Z,47.57
2022-09-05T10:10:59.755Z,48.26
2022-09-05T10:12:18.732Z,48.51
2022-09-05T10:15:23.200Z,47.60
2022-09-05T10:18:24.091Z,44.85
2022-09-05T10:21:33.457Z,44.48
2022-09-05T10:24:06.507Z,43.69
2022-09-05T10:27:04.084Z,45.24
2022-09-05T10:29:46.398Z,44.47
2022-09-05T10:35:11.196Z,43.60
2022-09-05T10:35:22.312Z,43.84
2022-09-05T10:38:10.811Z,44.70
2022-09-05T10:41:14.581Z,43.95
2022-09-05T10:43:32.392Z,44.63
2022-09-05T10:49:25.409Z,42.38
2022-09-05T10:52:40.344Z,42.07
2022-09-05T10:55:22.281Z,43.50
2022-09-05T10:58:00.897Z,42.90
2022-09-05T11:02:21.648Z,43.38
2022-09-05T11:03:58.534Z,42.20
2022-09-05T11:06:49.165Z,42.21
2022-09-05T11:09:56.073Z,43.01
2022-09-05T11:12:38.533Z,43.88
2022-09-05T11:15:25.599Z,43.75
2022-09-05T11:18:19.255Z,43.19
2022-09-05T11:20:56.004Z,42.41
2022-09-05T11:23:34.700Z,42.95
2022-09-05T11:26:07.625Z,42.54
2022-09-05T11:29:00.629Z,41.41
2022-09-05T11:32:26.973Z,41.74
2022-09-05T11:40:10.151Z,42.36
2022-09-05T11:40:25.066Z,41.56
2022-09-05T11:41:33.219Z,41.64
2022-09-05T11:44:25.042Z,42.33
2022-09-05T11:47:30.155Z,41.84
2022-09-05T11:50:29.534Z,42.74
2022-09-05T11:53:34.028Z,41.99
2022-09-05T11:56:28.569Z,40.68
2022-09-05T11:59:14.975Z,41.12
2022-09-05T12:02:25.674Z,40.13
2022-09-05T12:05:49.971Z,41.49
2022-09-05T12:08:38.187Z,39.33
2022-09-05T12:11:26.957Z,40.22
2022-09-05T12:14:25.551Z,40.16
2022-09-05T12:17:10.265Z,39.17
2022-09-05T12:19:56.292Z,39.94
2022-09-05T12:22:52.378Z,38.83
2022-09-05T12:27:44.900Z,38.58
2022-09-05T12:29:34.242Z,37.67
2022-09-05T12:32:46.176Z,36.86
2022-09-05T12:36:12.812Z,37.15
2022-09-05T12:40:56.096Z,37.24
2022-09-05T12:41:43.898Z,37.96
2022-09-05T12:44:40.995Z,37.89
2022-09-05T12:47:18.973Z,36.86
2022-09-05T12:50:10.756Z,37.71
2022-09-05T12:52:51.397Z,37.08
2022-09-05T12:55:26.296Z,36.53
2022-09-05T13:02:57.392Z,36.14
2022-09-05T13:03:04.085Z,36.14
2022-09-05T13:04:17.269Z,36.09
2022-09-05T13:07:01.075Z,35.00
2022-09-05T13:10:35.193Z,34.79
2022-09-05T13:14:59.359Z,34.98
2022-09-05T13:15:36.385Z,35.68
2022-09-05T13:18:17.297Z,35.40
2022-09-05T13:20:51.489Z,35.54
2022-09-05T13:23:25.833Z,35.26
2022-09-05T13:26:08.231Z,35.87
2022-09-05T13:29:09.968Z,36.21
2022-09-05T13:38:02.724Z,36.28
2022-09-05T13:38:05.340Z,36.99
2022-09-05T13:38:30.765Z,36.58
2022-09-05T13:40:51.079Z,37.05
2022-09-05T13:43:38.248Z,36.33
2022-09-05T13:46:10.680Z,36.38
2022-09-05T13:49:31.577Z,35.94
2022-09-05T13:52:11.747Z,36.45
2022-09-05T13:54:50.840Z,35.53
2022-09-05T13:57:32.158Z,35.42
2022-09-05T14:00:42.187Z,35.44
2022-09-05T14:03:38.086Z,35.71
2022-09-05T14:06:47.503Z,36.15
2022-09-05T14:09:50.398Z,35.33
2022-09-05T14:12:37.954Z,36.01
2022-09-05T14:15:24.797Z,35.58
2022-09-05T14:17:55.540Z,34.95
2022-09-05T14:20:49.651Z,35.06
2022-09-05T14:23:20.863Z,35.12
2022-09-05T14:26:01.070Z,34.65
2022-09-05T14:28:36.136Z,34.67
2022-09-05T14:33:34.140Z,34.57
2022-09-05T14:37:35.330Z,34.68
2022-09-05T14:38:09.399Z,34.01
2022-09-05T14:41:29.017Z,26.85
2022-09-05T14:44:50.255Z,25.70
2022-09-05T14:47:32.459Z,18.82
2022-09-05T14:50:17.807Z,22.16
2022-09-05T14:57:23.957Z,27.72
2022-09-05T15:02:48.284Z,23.95
2022-09-05T15:02:54.234Z,28.49
2022-09-05T15:05:11.610Z,28.20
2022-09-05T15:07:48.692Z,29.82
2022-09-05T15:12:18.374Z,31.42
2022-09-05T15:13:11.582Z,30.14
2022-09-05T15:15:44.946Z,30.01
2022-09-05T15:18:42.140Z,31.95
2022-09-05T15:21:33.260Z,32.84
2022-09-05T15:24:15.701Z,34.10
2022-09-05T15:26:57.250Z,33.88
2022-09-05T15:29:26.947Z,33.40
2022-09-05T15:32:16.358Z,34.09
2022-09-05T15:34:43.527Z,34.63
2022-09-05T15:37:40.508Z,33.85
2022-09-05T15:40:23.161Z,33.67
2022-09-05T15:43:00.553Z,33.12
2022-09-05T15:45:32.594Z,32.27
2022-09-05T15:48:12.572Z,30.23
2022-09-05T15:50:46.715Z,30.45
2022-09-05T15:53:23.554Z,31.55
2022-09-05T15:56:00.249Z,32.48
2022-09-05T15:58:52.486Z,32.86
2022-09-05T16:01:45.046Z,32.96
2022-09-05T16:09:16.622Z,32.33
2022-09-05T16:10:40.812Z,28.33
2022-09-05T16:10:42.752Z,24.69
2022-09-05T16:12:44.486Z,29.98
2022-09-05T16:17:48.190Z,25.03
2022-09-05T16:23:13.184Z,21.55
2022-09-05T16:23:32.822Z,22.84
2022-09-05T16:24:06.644Z,26.95
2022-09-05T16:26:41.963Z,28.84
2022-09-05T16:29:25.282Z,29.93
2022-09-05T16:31:59.257Z,30.41
2022-09-05T16:34:56.745Z,31.47
2022-09-05T16:37:34.948Z,32.21
2022-09-05T16:40:11.259Z,33.35
2022-09-05T16:42:49.013Z,33.42
2022-09-05T16:45:19.057Z,29.94
2022-09-05T16:48:07.789Z,29.04
2022-09-05T16:50:50.684Z,27.10
2022-09-05T16:53:50.821Z,29.36
2022-09-05T16:56:38.552Z,31.82
2022-09-05T16:59:15.793Z,33.78
2022-09-05T17:02:27.993Z,34.05
2022-09-05T17:05:13.799Z,36.15
2022-09-05T17:07:49.890Z,36.67
2022-09-05T17:10:20.081Z,37.25
2022-09-05T17:12:54.508Z,37.91
2022-09-05T17:15:31.153Z,38.34
2022-09-05T17:18:24.337Z,38.51
2022-09-05T17:21:01.070Z,38.63
2022-09-05T17:26:55.460Z,39.17
2022-09-05T17:29:25.033Z,40.27
2022-09-05T17:32:51.360Z,41.10
2022-09-05T17:35:55.221Z,41.12
2022-09-05T17:38:48.101Z,41.73
2022-09-05T17:41:30.268Z,41.52
2022-09-05T17:44:10.352Z,41.56
2022-09-05T17:47:02.835Z,41.97
2022-09-05T17:49:45.178Z,42.32
2022-09-05T17:52:17.335Z,41.91
2022-09-05T17:54:52.326Z,42.17
2022-09-05T17:57:28.664Z,42.36
2022-09-05T18:00:03.834Z,42.38
2022-09-05T18:02:56.626Z,42.45
2022-09-05T18:05:56.798Z,43.56
2022-09-05T18:08:45.456Z,42.70
2022-09-05T18:11:25.173Z,43.31
2022-09-05T18:13:57.046Z,43.70
2022-09-05T18:17:35.572Z,43.75
2022-09-05T18:19:59.870Z,44.13
2022-09-05T18:22:30.961Z,44.13
2022-09-05T18:25:15.236Z,43.94
2022-09-05T18:28:11.264Z,44.44
2022-09-05T18:30:38.902Z,43.75
2022-09-05T18:33:56.303Z,43.94
2022-09-05T18:35:58.081Z,44.35
2022-09-05T18:38:51.312Z,44.10
2022-09-05T18:41:24.937Z,44.55
2022-09-05T18:44:12.239Z,44.44
2022-09-05T18:46:51.760Z,44.86
2022-09-05T18:50:24.963Z,44.90
2022-09-05T18:52:27.536Z,45.47
2022-09-05T18:56:10.730Z,45.34
2022-09-05T18:57:58.975Z,44.87
2022-09-05T19:00:44.807Z,45.67
2022-09-05T19:03:28.748Z,45.72
2022-09-05T19:06:37.203Z,45.63
2022-09-05T19:08:56.279Z,45.85
2022-09-05T19:11:34.104Z,46.03
2022-09-05T19:14:26.362Z,46.39
2022-09-05T19:17:12.187Z,46.13
2022-09-05T19:20:28.792Z,46.62
2022-09-05T19:23:11.004Z,46.48
2022-09-05T19:25:46.233Z,46.55
2022-09-05T19:36:45.558Z,46.18
2022-09-05T19:36:50.765Z,46.49
2022-09-05T19:36:58.702Z,46.53
2022-09-05T19:37:29.661Z,46.68
2022-09-05T19:42:08.144Z,46.67
2022-09-05T19:47:40.606Z,47.26
2022-09-05T19:47:49.235Z,47.01
2022-09-05T19:48:29.297Z,47.04
2022-09-05T19:51:17.155Z,46.87
2022-09-05T19:53:56.529Z,47.39
2022-09-05T19:56:40.760Z,47.38
2022-09-05T19:59:19.236Z,47.64
2022-09-05T20:01:47.728Z,47.47
2022-09-05T20:04:18.646Z,48.20
2022-09-05T20:06:48.067Z,49.11
2022-09-05T20:09:19.467Z,49.68
2022-09-05T20:11:58.100Z,50.09
2022-09-05T20:14:31.180Z,50.92
2022-09-05T20:17:17.646Z,50.69
2022-09-05T20:19:45.061Z,51.16
2022-09-05T20:22:47.913Z,51.31
2022-09-05T20:25:10.967Z,52.38
2022-09-05T20:27:59.126Z,52.12
2022-09-05T20:30:34.752Z,52.19
2022-09-05T20:33:13.529Z,52.67
2022-09-05T20:41:32.181Z,53.25
2022-09-05T20:43:23.802Z,53.81
2022-09-05T20:43:24.000Z,54.28
2022-09-05T20:44:22.575Z,55.09
2022-09-05T20:54:06.843Z,54.91
2022-09-05T20:54:17.177Z,56.14
2022-09-05T20:54:18.228Z,55.76
2022-09-05T20:56:22.996Z,56.14
2022-09-05T20:58:51.095Z,56.38
2022-09-05T21:01:23.336Z,56.29
2022-09-05T21:03:57.438Z,56.45
2022-09-05T21:06:44.385Z,57.03
2022-09-05T21:09:11.495Z,57.49
2022-09-05T21:11:39.762Z,57.37
2022-09-05T21:14:07.911Z,56.92
2022-09-05T21:16:44.861Z,57.25
2022-09-05T21:19:34.459Z,56.98
2022-09-05T21:22:06.793Z,57.53
2022-09-05T21:24:33.950Z,57.75
2022-09-05T21:27:21.779Z,57.68
2022-09-05T21:29:53.025Z,58.13
2022-09-05T21:32:30.232Z,57.72
2022-09-05T21:35:33.848Z,58.08
2022-09-05T21:37:54.029Z,58.15
2022-09-05T21:40:21.471Z,57.86
2022-09-05T21:47:20.352Z,58.15
2022-09-05T21:47:37.539Z,58.19
2022-09-05T21:48:24.312Z,57.92
2022-09-05T21:50:54.759Z,58.74
2022-09-05T21:59:18.748Z,58.39
2022-09-05T21:59:21.205Z,58.90
2022-09-05T22:00:05.522Z,58.14
2022-09-05T22:02:49.216Z,57.62
2022-09-05T22:05:17.266Z,57.48
2022-09-05T22:07:44.428Z,57.58
2022-09-05T22:10:12.072Z,57.68
2022-09-05T22:12:40.335Z,56.49
2022-09-05T22:15:27.193Z,56.80
2022-09-05T22:18:06.309Z,57.18
2022-09-05T22:21:17.485Z,57.48
2022-09-05T22:23:38.117Z,57.95
2022-09-05T22:26:05.693Z,57.99
2022-09-05T22:28:34.428Z,58.66
2022-09-05T22:31:07.487Z,59.16
2022-09-05T22:33:35.917Z,59.04
2022-09-05T22:36:03.809Z,59.06
2022-09-05T22:38:31.020Z,59.01
2022-09-05T22:40:58.297Z,59.01
2022-09-05T22:43:25.626Z,58.52
2022-09-05T22:45:56.565Z,57.30
2022-09-05T22:48:24.039Z,57.42
2022-09-05T22:50:51.163Z,57.09
2022-09-05T22:53:18.482Z,56.63
2022-09-05T22:55:45.631Z,56.67
2022-09-05T22:58:14.692Z,56.63
2022-09-05T23:00:44.105Z,56.69
2022-09-05T23:03:11.241Z,57.13
2022-09-05T23:05:38.393Z,57.91
2022-09-05T23:08:06.380Z,58.04
2022-09-05T23:10:34.754Z,59.92
2022-09-05T23:13:07.334Z,60.84
2022-09-05T23:15:35.353Z,61.95
2022-09-05T23:18:03.866Z,64.30
2022-09-05T23:20:32.866Z,67.86
2022-09-05T23:23:04.032Z,68.13
2022-09-05T23:25:32.060Z,68.12
2022-09-05T23:27:59.289Z,69.59
2022-09-05T23:30:26.423Z,70.97
2022-09-05T23:32:53.575Z,72.50
2022-09-05T23:35:20.960Z,72.61
2022-09-05T23:37:48.673Z,73.02
2022-09-05T23:40:20.013Z,73.26
2022-09-05T23:43:05.511Z,72.95
2022-09-05T23:45:32.651Z,73.71
2022-09-05T23:48:00.351Z,74.95
2022-09-05T23:50:28.129Z,78.00
2022-09-05T23:52:55.261Z,77.24
2022-09-05T23:55:23.381Z,77.05
2022-09-05T23:57:57.410Z,78.69
